sensor_id;sensor_type;location;lat;lon;timestamp;P1;durP1;ratioP1;P2;durP2;ratioP2
62092;SDS011;59819;52.976;6.846;2022-09-09T00:00:14;35.13;;;20.63;;
62092;SDS011;59819;52.976;6.846;2022-09-09T00:02:41;32.70;;;20.83;;
62092;SDS011;59819;52.976;6.846;2022-09-09T00:05:29;39.65;;;23.15;;
62092;SDS011;59819;52.976;6.846;2022-09-09T00:07:57;89.72;;;21.83;;
62092;SDS011;59819;52.976;6.846;2022-09-09T00:12:59;40.97;;;20.40;;
62092;SDS011;59819;52.976;6.846;2022-09-09T00:15:32;32.50;;;23.08;;
62092;SDS011;59819;52.976;6.846;2022-09-09T00:18:03;31.33;;;21.05;;
62092;SDS011;59819;52.976;6.846;2022-09-09T00:23:02;29.17;;;20.48;;
62092;SDS011;59819;52.976;6.846;2022-09-09T00:25:30;24.92;;;19.70;;
62092;SDS011;59819;52.976;6.846;2022-09-09T00:27:59;27.77;;;20.23;;
62092;SDS011;59819;52.976;6.846;2022-09-09T00:30:26;29.13;;;20.88;;
62092;SDS011;59819;52.976;6.846;2022-09-09T00:32:54;29.77;;;20.92;;
62092;SDS011;59819;52.976;6.846;2022-09-09T00:35:30;29.92;;;20.58;;
62092;SDS011;59819;52.976;6.846;2022-09-09T00:38:00;31.13;;;21.52;;
62092;SDS011;59819;52.976;6.846;2022-09-09T00:40:35;28.85;;;20.27;;
62092;SDS011;59819;52.976;6.846;2022-09-09T00:46:10;26.67;;;18.67;;
62092;SDS011;59819;52.976;6.846;2022-09-09T00:51:08;23.13;;;16.35;;
62092;SDS011;59819;52.976;6.846;2022-09-09T00:56:27;23.27;;;16.52;;
62092;SDS011;59819;52.976;6.846;2022-09-09T00:59:00;24.85;;;17.35;;
62092;SDS011;59819;52.976;6.846;2022-09-09T01:01:31;21.88;;;16.50;;
62092;SDS011;59819;52.976;6.846;2022-09-09T01:03:57;24.25;;;17.23;;
62092;SDS011;59819;52.976;6.846;2022-09-09T01:11:26;23.13;;;16.40;;
62092;SDS011;59819;52.976;6.846;2022-09-09T01:13:58;22.80;;;17.40;;
62092;SDS011;59819;52.976;6.846;2022-09-09T01:16:27;27.45;;;18.08;;
62092;SDS011;59819;52.976;6.846;2022-09-09T01:18:54;27.52;;;19.08;;
62092;SDS011;59819;52.976;6.846;2022-09-09T01:21:25;28.50;;;19.75;;
62092;SDS011;59819;52.976;6.846;2022-09-09T01:24:17;28.73;;;18.83;;
62092;SDS011;59819;52.976;6.846;2022-09-09T01:26:45;28.10;;;19.38;;
62092;SDS011;59819;52.976;6.846;2022-09-09T01:29:13;23.77;;;19.02;;
62092;SDS011;59819;52.976;6.846;2022-09-09T01:31:41;28.33;;;20.88;;
62092;SDS011;59819;52.976;6.846;2022-09-09T01:34:11;25.08;;;18.63;;
62092;SDS011;59819;52.976;6.846;2022-09-09T01:36:39;27.73;;;19.17;;
62092;SDS011;59819;52.976;6.846;2022-09-09T01:39:06;25.73;;;18.45;;
62092;SDS011;59819;52.976;6.846;2022-09-09T01:41:32;26.13;;;17.27;;
62092;SDS011;59819;52.976;6.846;2022-09-09T01:43:58;23.23;;;15.98;;
62092;SDS011;59819;52.976;6.846;2022-09-09T01:46:24;21.67;;;16.48;;
62092;SDS011;59819;52.976;6.846;2022-09-09T01:48:51;25.15;;;16.83;;
62092;SDS011;59819;52.976;6.846;2022-09-09T01:51:18;24.60;;;15.48;;
62092;SDS011;59819;52.976;6.846;2022-09-09T01:53:44;19.50;;;14.43;;
62092;SDS011;59819;52.976;6.846;2022-09-09T02:03:51;23.65;;;16.60;;
62092;SDS011;59819;52.976;6.846;2022-09-09T02:06:28;23.95;;;16.35;;
62092;SDS011;59819;52.976;6.846;2022-09-09T02:08:56;23.85;;;16.95;;
62092;SDS011;59819;52.976;6.846;2022-09-09T02:11:25;27.02;;;18.33;;
62092;SDS011;59819;52.976;6.846;2022-09-09T02:13:53;28.08;;;19.23;;
62092;SDS011;59819;52.976;6.846;2022-09-09T02:16:24;26.00;;;18.92;;
62092;SDS011;59819;52.976;6.846;2022-09-09T02:18:57;25.55;;;16.65;;
62092;SDS011;59819;52.976;6.846;2022-09-09T02:21:27;27.73;;;18.60;;
62092;SDS011;59819;52.976;6.846;2022-09-09T02:23:54;22.30;;;17.10;;
62092;SDS011;59819;52.976;6.846;2022-09-09T02:26:22;25.55;;;18.35;;
62092;SDS011;59819;52.976;6.846;2022-09-09T02:28:50;24.63;;;16.75;;
62092;SDS011;59819;52.976;6.846;2022-09-09T02:31:17;26.77;;;18.13;;
62092;SDS011;59819;52.976;6.846;2022-09-09T02:33:45;32.83;;;18.40;;
62092;SDS011;59819;52.976;6.846;2022-09-09T02:36:13;22.50;;;16.15;;
62092;SDS011;59819;52.976;6.846;2022-09-09T02:38:46;27.38;;;17.50;;
62092;SDS011;59819;52.976;6.846;2022-09-09T02:41:23;28.80;;;16.73;;
62092;SDS011;59819;52.976;6.846;2022-09-09T02:43:50;26.85;;;17.27;;
62092;SDS011;59819;52.976;6.846;2022-09-09T02:51:24;28.45;;;17.30;;
62092;SDS011;59819;52.976;6.846;2022-09-09T02:56:20;25.02;;;16.35;;
62092;SDS011;59819;52.976;6.846;2022-09-09T02:58:47;31.85;;;18.42;;
62092;SDS011;59819;52.976;6.846;2022-09-09T03:01:14;32.20;;;18.80;;
62092;SDS011;59819;52.976;6.846;2022-09-09T03:03:40;28.88;;;17.83;;
62092;SDS011;59819;52.976;6.846;2022-09-09T03:06:07;22.30;;;15.43;;
62092;SDS011;59819;52.976;6.846;2022-09-09T03:08:33;26.25;;;17.00;;
62092;SDS011;59819;52.976;6.846;2022-09-09T03:10:59;24.27;;;15.80;;
62092;SDS011;59819;52.976;6.846;2022-09-09T03:13:28;22.13;;;15.00;;
62092;SDS011;59819;52.976;6.846;2022-09-09T03:15:54;25.05;;;15.88;;
62092;SDS011;59819;52.976;6.846;2022-09-09T03:18:20;25.90;;;16.30;;
62092;SDS011;59819;52.976;6.846;2022-09-09T03:20:47;27.55;;;17.42;;
62092;SDS011;59819;52.976;6.846;2022-09-09T03:23:16;25.67;;;16.05;;
62092;SDS011;59819;52.976;6.846;2022-09-09T03:25:51;29.45;;;18.00;;
62092;SDS011;59819;52.976;6.846;2022-09-09T03:28:21;30.50;;;19.00;;
62092;SDS011;59819;52.976;6.846;2022-09-09T03:30:48;28.92;;;18.15;;
62092;SDS011;59819;52.976;6.846;2022-09-09T03:33:14;30.00;;;19.27;;
62092;SDS011;59819;52.976;6.846;2022-09-09T03:35:44;30.33;;;20.05;;
62092;SDS011;59819;52.976;6.846;2022-09-09T03:38:12;32.22;;;19.10;;
62092;SDS011;59819;52.976;6.846;2022-09-09T03:40:38;27.40;;;17.10;;
62092;SDS011;59819;52.976;6.846;2022-09-09T03:43:04;23.05;;;15.50;;
62092;SDS011;59819;52.976;6.846;2022-09-09T03:45:30;20.95;;;14.90;;
62092;SDS011;59819;52.976;6.846;2022-09-09T03:47:56;23.08;;;14.57;;
62092;SDS011;59819;52.976;6.846;2022-09-09T03:50:22;20.92;;;15.10;;
62092;SDS011;59819;52.976;6.846;2022-09-09T03:52:48;25.40;;;16.67;;
62092;SDS011;59819;52.976;6.846;2022-09-09T03:55:15;18.42;;;13.52;;
62092;SDS011;59819;52.976;6.846;2022-09-09T03:57:41;22.10;;;14.15;;
62092;SDS011;59819;52.976;6.846;2022-09-09T04:00:08;22.65;;;15.88;;
62092;SDS011;59819;52.976;6.846;2022-09-09T04:02:34;23.38;;;16.35;;
62092;SDS011;59819;52.976;6.846;2022-09-09T04:05:00;26.50;;;16.80;;
62092;SDS011;59819;52.976;6.846;2022-09-09T04:07:26;27.13;;;17.95;;
62092;SDS011;59819;52.976;6.846;2022-09-09T04:09:53;25.35;;;17.30;;
62092;SDS011;59819;52.976;6.846;2022-09-09T04:12:19;21.65;;;15.68;;
62092;SDS011;59819;52.976;6.846;2022-09-09T04:14:47;21.55;;;15.68;;
62092;SDS011;59819;52.976;6.846;2022-09-09T04:17:13;20.10;;;14.60;;
62092;SDS011;59819;52.976;6.846;2022-09-09T04:19:39;19.02;;;13.82;;
62092;SDS011;59819;52.976;6.846;2022-09-09T04:22:05;20.02;;;13.95;;
62092;SDS011;59819;52.976;6.846;2022-09-09T04:24:31;17.20;;;12.55;;
62092;SDS011;59819;52.976;6.846;2022-09-09T04:26:57;16.60;;;11.68;;
62092;SDS011;59819;52.976;6.846;2022-09-09T04:29:23;14.32;;;11.20;;
62092;SDS011;59819;52.976;6.846;2022-09-09T04:31:49;15.50;;;11.05;;
62092;SDS011;59819;52.976;6.846;2022-09-09T04:34:15;15.85;;;10.07;;
62092;SDS011;59819;52.976;6.846;2022-09-09T04:36:42;12.60;;;10.15;;
62092;SDS011;59819;52.976;6.846;2022-09-09T04:39:08;13.77;;;10.35;;
62092;SDS011;59819;52.976;6.846;2022-09-09T04:41:34;14.02;;;9.95;;
62092;SDS011;59819;52.976;6.846;2022-09-09T04:44:00;16.17;;;11.07;;
62092;SDS011;59819;52.976;6.846;2022-09-09T04:46:27;18.40;;;11.95;;
62092;SDS011;59819;52.976;6.846;2022-09-09T04:48:53;17.90;;;12.10;;
62092;SDS011;59819;52.976;6.846;2022-09-09T04:51:19;18.02;;;12.82;;
62092;SDS011;59819;52.976;6.846;2022-09-09T04:53:45;20.20;;;13.18;;
62092;SDS011;59819;52.976;6.846;2022-09-09T04:56:13;18.67;;;13.27;;
62092;SDS011;59819;52.976;6.846;2022-09-09T04:58:40;20.67;;;13.77;;
62092;SDS011;59819;52.976;6.846;2022-09-09T05:01:14;21.15;;;14.32;;
62092;SDS011;59819;52.976;6.846;2022-09-09T05:06:11;24.10;;;14.93;;
62092;SDS011;59819;52.976;6.846;2022-09-09T05:08:37;21.63;;;14.65;;
62092;SDS011;59819;52.976;6.846;2022-09-09T05:11:12;21.02;;;13.98;;
62092;SDS011;59819;52.976;6.846;2022-09-09T05:13:38;20.83;;;13.95;;
62092;SDS011;59819;52.976;6.846;2022-09-09T05:16:05;21.25;;;13.88;;
62092;SDS011;59819;52.976;6.846;2022-09-09T05:18:31;18.48;;;13.40;;
62092;SDS011;59819;52.976;6.846;2022-09-09T05:21:00;18.52;;;13.52;;
62092;SDS011;59819;52.976;6.846;2022-09-09T05:23:26;18.65;;;13.43;;
62092;SDS011;59819;52.976;6.846;2022-09-09T05:25:56;20.23;;;14.40;;
62092;SDS011;59819;52.976;6.846;2022-09-09T05:28:23;21.77;;;15.02;;
62092;SDS011;59819;52.976;6.846;2022-09-09T05:30:57;25.88;;;15.23;;
62092;SDS011;59819;52.976;6.846;2022-09-09T05:33:23;19.48;;;13.98;;
62092;SDS011;59819;52.976;6.846;2022-09-09T05:36:01;23.42;;;15.48;;
62092;SDS011;59819;52.976;6.846;2022-09-09T05:38:28;18.38;;;13.32;;
62092;SDS011;59819;52.976;6.846;2022-09-09T05:40:54;20.63;;;13.80;;
62092;SDS011;59819;52.976;6.846;2022-09-09T05:43:22;20.17;;;13.45;;
62092;SDS011;59819;52.976;6.846;2022-09-09T05:45:48;17.52;;;13.73;;
62092;SDS011;59819;52.976;6.846;2022-09-09T05:48:14;17.30;;;13.40;;
62092;SDS011;59819;52.976;6.846;2022-09-09T05:50:41;17.05;;;12.38;;
62092;SDS011;59819;52.976;6.846;2022-09-09T05:53:07;18.88;;;13.57;;
62092;SDS011;59819;52.976;6.846;2022-09-09T05:55:34;17.38;;;12.93;;
62092;SDS011;59819;52.976;6.846;2022-09-09T05:58:00;19.77;;;13.38;;
62092;SDS011;59819;52.976;6.846;2022-09-09T06:00:26;19.40;;;13.73;;
62092;SDS011;59819;52.976;6.846;2022-09-09T06:02:52;21.77;;;14.20;;
62092;SDS011;59819;52.976;6.846;2022-09-09T06:05:19;19.92;;;13.55;;
62092;SDS011;59819;52.976;6.846;2022-09-09T06:07:45;17.77;;;13.50;;
62092;SDS011;59819;52.976;6.846;2022-09-09T06:10:12;19.73;;;14.25;;
62092;SDS011;59819;52.976;6.846;2022-09-09T06:12:39;17.30;;;12.77;;
62092;SDS011;59819;52.976;6.846;2022-09-09T06:15:05;17.55;;;12.98;;
62092;SDS011;59819;52.976;6.846;2022-09-09T06:17:32;17.58;;;12.38;;
62092;SDS011;59819;52.976;6.846;2022-09-09T06:19:58;17.25;;;12.27;;
62092;SDS011;59819;52.976;6.846;2022-09-09T06:22:24;14.82;;;12.02;;
62092;SDS011;59819;52.976;6.846;2022-09-09T06:24:50;15.88;;;11.80;;
62092;SDS011;59819;52.976;6.846;2022-09-09T06:27:16;17.42;;;12.10;;
62092;SDS011;59819;52.976;6.846;2022-09-09T06:29:42;15.32;;;10.90;;
62092;SDS011;59819;52.976;6.846;2022-09-09T06:32:08;15.50;;;11.95;;
62092;SDS011;59819;52.976;6.846;2022-09-09T06:34:34;17.75;;;12.75;;
62092;SDS011;59819;52.976;6.846;2022-09-09T06:37:01;14.63;;;11.40;;
62092;SDS011;59819;52.976;6.846;2022-09-09T06:39:27;12.27;;;10.50;;
62092;SDS011;59819;52.976;6.846;2022-09-09T06:41:53;13.73;;;9.65;;
62092;SDS011;59819;52.976;6.846;2022-09-09T06:44:20;12.32;;;9.88;;
62092;SDS011;59819;52.976;6.846;2022-09-09T06:46:48;12.38;;;9.75;;
62092;SDS011;59819;52.976;6.846;2022-09-09T06:49:14;11.07;;;8.88;;
62092;SDS011;59819;52.976;6.846;2022-09-09T06:51:41;10.43;;;8.95;;
62092;SDS011;59819;52.976;6.846;2022-09-09T06:54:09;11.63;;;9.45;;
62092;SDS011;59819;52.976;6.846;2022-09-09T06:56:36;12.65;;;9.02;;
62092;SDS011;59819;52.976;6.846;2022-09-09T06:59:03;11.85;;;8.88;;
62092;SDS011;59819;52.976;6.846;2022-09-09T07:01:34;11.00;;;8.55;;
62092;SDS011;59819;52.976;6.846;2022-09-09T07:04:00;10.02;;;8.68;;
62092;SDS011;59819;52.976;6.846;2022-09-09T07:06:28;12.50;;;7.90;;
62092;SDS011;59819;52.976;6.846;2022-09-09T07:08:56;10.70;;;8.32;;
62092;SDS011;59819;52.976;6.846;2022-09-09T07:11:23;12.15;;;7.97;;
62092;SDS011;59819;52.976;6.846;2022-09-09T07:13:50;10.98;;;8.40;;
62092;SDS011;59819;52.976;6.846;2022-09-09T07:16:17;11.68;;;8.52;;
62092;SDS011;59819;52.976;6.846;2022-09-09T07:18:43;12.82;;;9.30;;
62092;SDS011;59819;52.976;6.846;2022-09-09T07:21:10;13.48;;;9.23;;
62092;SDS011;59819;52.976;6.846;2022-09-09T07:23:40;12.07;;;9.15;;
62092;SDS011;59819;52.976;6.846;2022-09-09T07:26:10;13.02;;;9.73;;
62092;SDS011;59819;52.976;6.846;2022-09-09T07:28:37;11.18;;;9.35;;
62092;SDS011;59819;52.976;6.846;2022-09-09T07:31:03;13.50;;;9.52;;
62092;SDS011;59819;52.976;6.846;2022-09-09T07:33:30;11.82;;;9.38;;
62092;SDS011;59819;52.976;6.846;2022-09-09T07:36:05;15.18;;;9.48;;
62092;SDS011;59819;52.976;6.846;2022-09-09T07:38:33;11.85;;;9.23;;
62092;SDS011;59819;52.976;6.846;2022-09-09T07:41:07;12.52;;;9.68;;
62092;SDS011;59819;52.976;6.846;2022-09-09T07:43:40;13.13;;;9.35;;
62092;SDS011;59819;52.976;6.846;2022-09-09T07:46:07;11.43;;;8.73;;
62092;SDS011;59819;52.976;6.846;2022-09-09T07:48:33;11.60;;;8.90;;
62092;SDS011;59819;52.976;6.846;2022-09-09T07:51:07;10.35;;;8.70;;
62092;SDS011;59819;52.976;6.846;2022-09-09T07:53:34;9.45;;;8.45;;
62092;SDS011;59819;52.976;6.846;2022-09-09T07:56:08;11.77;;;8.80;;
62092;SDS011;59819;52.976;6.846;2022-09-09T07:58:35;12.05;;;8.45;;
62092;SDS011;59819;52.976;6.846;2022-09-09T08:01:06;10.85;;;8.45;;
62092;SDS011;59819;52.976;6.846;2022-09-09T08:03:32;10.37;;;7.80;;
62092;SDS011;59819;52.976;6.846;2022-09-09T08:06:04;10.75;;;7.22;;
62092;SDS011;59819;52.976;6.846;2022-09-09T08:08:32;10.20;;;7.63;;
62092;SDS011;59819;52.976;6.846;2022-09-09T08:11:02;10.50;;;7.30;;
62092;SDS011;59819;52.976;6.846;2022-09-09T08:13:29;11.55;;;7.75;;
62092;SDS011;59819;52.976;6.846;2022-09-09T08:16:03;9.27;;;7.07;;
62092;SDS011;59819;52.976;6.846;2022-09-09T08:18:29;9.95;;;7.53;;
62092;SDS011;59819;52.976;6.846;2022-09-09T08:20:55;10.20;;;8.02;;
62092;SDS011;59819;52.976;6.846;2022-09-09T08:23:21;11.68;;;7.80;;
62092;SDS011;59819;52.976;6.846;2022-09-09T08:25:47;13.90;;;7.90;;
62092;SDS011;59819;52.976;6.846;2022-09-09T08:28:15;11.18;;;6.97;;
62092;SDS011;59819;52.976;6.846;2022-09-09T08:30:41;10.10;;;7.50;;
62092;SDS011;59819;52.976;6.846;2022-09-09T08:33:09;9.60;;;7.60;;
62092;SDS011;59819;52.976;6.846;2022-09-09T08:35:35;10.80;;;7.47;;
62092;SDS011;59819;52.976;6.846;2022-09-09T08:38:01;9.85;;;6.90;;
62092;SDS011;59819;52.976;6.846;2022-09-09T08:40:28;10.30;;;7.05;;
62092;SDS011;59819;52.976;6.846;2022-09-09T08:42:57;10.23;;;6.78;;
62092;SDS011;59819;52.976;6.846;2022-09-09T08:45:49;9.95;;;6.20;;
62092;SDS011;59819;52.976;6.846;2022-09-09T08:48:30;9.73;;;6.53;;
62092;SDS011;59819;52.976;6.846;2022-09-09T08:51:03;9.50;;;6.32;;
62092;SDS011;59819;52.976;6.846;2022-09-09T08:53:39;8.02;;;6.18;;
62092;SDS011;59819;52.976;6.846;2022-09-09T08:56:14;11.60;;;6.15;;
62092;SDS011;59819;52.976;6.846;2022-09-09T08:58:47;9.88;;;6.55;;
62092;SDS011;59819;52.976;6.846;2022-09-09T09:01:21;10.25;;;6.80;;
62092;SDS011;59819;52.976;6.846;2022-09-09T09:11:33;8.85;;;6.60;;
62092;SDS011;59819;52.976;6.846;2022-09-09T09:14:01;9.52;;;6.38;;
62092;SDS011;59819;52.976;6.846;2022-09-09T09:18:58;11.48;;;6.45;;
62092;SDS011;59819;52.976;6.846;2022-09-09T09:21:36;8.57;;;6.40;;
62092;SDS011;59819;52.976;6.846;2022-09-09T09:24:09;15.82;;;7.78;;
62092;SDS011;59819;52.976;6.846;2022-09-09T09:26:40;9.82;;;6.63;;
62092;SDS011;59819;52.976;6.846;2022-09-09T09:29:11;10.63;;;6.60;;
62092;SDS011;59819;52.976;6.846;2022-09-09T09:31:37;10.65;;;6.65;;
62092;SDS011;59819;52.976;6.846;2022-09-09T09:34:03;11.48;;;6.10;;
62092;SDS011;59819;52.976;6.846;2022-09-09T09:36:34;9.52;;;6.55;;
62092;SDS011;59819;52.976;6.846;2022-09-09T09:39:01;14.55;;;6.60;;
62092;SDS011;59819;52.976;6.846;2022-09-09T09:41:38;9.80;;;6.38;;
62092;SDS011;59819;52.976;6.846;2022-09-09T09:44:05;9.10;;;5.72;;
62092;SDS011;59819;52.976;6.846;2022-09-09T09:46:45;10.38;;;6.20;;
62092;SDS011;59819;52.976;6.846;2022-09-09T09:49:11;11.68;;;5.90;;
62092;SDS011;59819;52.976;6.846;2022-09-09T09:51:38;8.70;;;5.18;;
62092;SDS011;59819;52.976;6.846;2022-09-09T09:56:34;9.68;;;5.22;;
62092;SDS011;59819;52.976;6.846;2022-09-09T09:59:01;9.05;;;5.10;;
62092;SDS011;59819;52.976;6.846;2022-09-09T10:01:28;7.57;;;4.40;;
62092;SDS011;59819;52.976;6.846;2022-09-09T10:04:00;9.23;;;5.05;;
62092;SDS011;59819;52.976;6.846;2022-09-09T10:06:33;8.13;;;4.40;;
62092;SDS011;59819;52.976;6.846;2022-09-09T10:09:01;8.90;;;4.30;;
62092;SDS011;59819;52.976;6.846;2022-09-09T10:12:03;12.23;;;5.07;;
62092;SDS011;59819;52.976;6.846;2022-09-09T10:14:34;9.98;;;4.63;;
62092;SDS011;59819;52.976;6.846;2022-09-09T10:19:56;9.75;;;4.63;;
62092;SDS011;59819;52.976;6.846;2022-09-09T10:22:27;6.78;;;3.70;;
62092;SDS011;59819;52.976;6.846;2022-09-09T10:27:43;8.02;;;4.13;;
62092;SDS011;59819;52.976;6.846;2022-09-09T10:45:52;8.32;;;3.00;;
62092;SDS011;59819;52.976;6.846;2022-09-09T10:48:38;5.40;;;2.70;;
62092;SDS011;59819;52.976;6.846;2022-09-09T10:53:53;9.05;;;3.38;;
62092;SDS011;59819;52.976;6.846;2022-09-09T10:56:24;8.85;;;3.30;;
62092;SDS011;59819;52.976;6.846;2022-09-09T10:58:54;4.18;;;2.90;;
62092;SDS011;59819;52.976;6.846;2022-09-09T11:01:40;9.35;;;2.95;;
62092;SDS011;59819;52.976;6.846;2022-09-09T11:06:41;6.15;;;2.97;;
62092;SDS011;59819;52.976;6.846;2022-09-09T11:09:11;6.65;;;3.03;;
62092;SDS011;59819;52.976;6.846;2022-09-09T11:11:42;6.30;;;3.25;;
62092;SDS011;59819;52.976;6.846;2022-09-09T11:14:15;8.13;;;3.28;;
62092;SDS011;59819;52.976;6.846;2022-09-09T11:16:47;8.95;;;3.13;;
62092;SDS011;59819;52.976;6.846;2022-09-09T11:19:22;7.47;;;3.20;;
62092;SDS011;59819;52.976;6.846;2022-09-09T11:21:51;8.10;;;3.42;;
62092;SDS011;59819;52.976;6.846;2022-09-09T11:24:22;6.38;;;3.22;;
62092;SDS011;59819;52.976;6.846;2022-09-09T11:26:57;6.97;;;3.10;;
62092;SDS011;59819;52.976;6.846;2022-09-09T11:37:12;5.40;;;2.20;;
62092;SDS011;59819;52.976;6.846;2022-09-09T11:40:01;6.13;;;2.30;;
62092;SDS011;59819;52.976;6.846;2022-09-09T11:42:30;7.28;;;2.28;;
62092;SDS011;59819;52.976;6.846;2022-09-09T11:44:57;5.75;;;2.00;;
62092;SDS011;59819;52.976;6.846;2022-09-09T11:47:27;5.25;;;1.70;;
62092;SDS011;59819;52.976;6.846;2022-09-09T11:54:48;6.53;;;2.25;;
62092;SDS011;59819;52.976;6.846;2022-09-09T11:57:47;5.70;;;1.80;;
62092;SDS011;59819;52.976;6.846;2022-09-09T12:00:27;5.68;;;2.40;;
62092;SDS011;59819;52.976;6.846;2022-09-09T12:02:54;4.90;;;1.90;;
62092;SDS011;59819;52.976;6.846;2022-09-09T12:05:20;7.78;;;2.20;;
62092;SDS011;59819;52.976;6.846;2022-09-09T12:10:20;4.80;;;1.92;;
62092;SDS011;59819;52.976;6.846;2022-09-09T12:12:47;6.75;;;2.30;;
62092;SDS011;59819;52.976;6.846;2022-09-09T12:15:22;8.18;;;2.42;;
62092;SDS011;59819;52.976;6.846;2022-09-09T12:17:52;4.60;;;2.10;;
62092;SDS011;59819;52.976;6.846;2022-09-09T12:22:54;4.63;;;2.05;;
62092;SDS011;59819;52.976;6.846;2022-09-09T12:28:08;5.57;;;2.10;;
62092;SDS011;59819;52.976;6.846;2022-09-09T12:33:16;3.00;;;1.60;;
62092;SDS011;59819;52.976;6.846;2022-09-09T12:35:42;6.22;;;1.80;;
62092;SDS011;59819;52.976;6.846;2022-09-09T12:38:12;6.05;;;1.90;;
62092;SDS011;59819;52.976;6.846;2022-09-09T12:40:39;5.80;;;1.92;;
62092;SDS011;59819;52.976;6.846;2022-09-09T12:43:19;5.65;;;1.73;;
62092;SDS011;59819;52.976;6.846;2022-09-09T12:45:49;4.70;;;2.20;;
62092;SDS011;59819;52.976;6.846;2022-09-09T12:48:21;4.85;;;1.60;;
62092;SDS011;59819;52.976;6.846;2022-09-09T12:50:51;7.90;;;1.80;;
62092;SDS011;59819;52.976;6.846;2022-09-09T12:53:31;4.07;;;1.90;;
62092;SDS011;59819;52.976;6.846;2022-09-09T12:56:00;4.32;;;2.03;;
62092;SDS011;59819;52.976;6.846;2022-09-09T12:58:27;3.20;;;1.80;;
62092;SDS011;59819;52.976;6.846;2022-09-09T13:00:57;5.78;;;1.90;;
62092;SDS011;59819;52.976;6.846;2022-09-09T13:03:25;5.80;;;1.90;;
62092;SDS011;59819;52.976;6.846;2022-09-09T13:05:51;5.80;;;1.90;;
62092;SDS011;59819;52.976;6.846;2022-09-09T13:08:18;3.88;;;1.77;;
62092;SDS011;59819;52.976;6.846;2022-09-09T13:10:52;5.85;;;1.80;;
62092;SDS011;59819;52.976;6.846;2022-09-09T13:13:24;4.28;;;1.70;;
62092;SDS011;59819;52.976;6.846;2022-09-09T13:16:01;7.63;;;2.10;;
62092;SDS011;59819;52.976;6.846;2022-09-09T13:18:31;3.95;;;1.85;;
62092;SDS011;59819;52.976;6.846;2022-09-09T13:20:59;4.80;;;2.03;;
62092;SDS011;59819;52.976;6.846;2022-09-09T13:23:26;5.45;;;1.77;;
62092;SDS011;59819;52.976;6.846;2022-09-09T13:25:59;5.88;;;1.67;;
62092;SDS011;59819;52.976;6.846;2022-09-09T13:28:26;4.07;;;1.80;;
62092;SDS011;59819;52.976;6.846;2022-09-09T13:30:56;4.57;;;1.63;;
62092;SDS011;59819;52.976;6.846;2022-09-09T13:33:35;3.90;;;1.52;;
62092;SDS011;59819;52.976;6.846;2022-09-09T13:36:09;4.95;;;1.98;;
62092;SDS011;59819;52.976;6.846;2022-09-09T13:38:36;2.90;;;1.83;;
62092;SDS011;59819;52.976;6.846;2022-09-09T13:41:07;4.47;;;1.73;;
62092;SDS011;59819;52.976;6.846;2022-09-09T13:43:35;4.40;;;1.95;;
62092;SDS011;59819;52.976;6.846;2022-09-09T13:46:03;5.97;;;2.10;;
62092;SDS011;59819;52.976;6.846;2022-09-09T13:48:29;6.95;;;2.17;;
62092;SDS011;59819;52.976;6.846;2022-09-09T13:51:00;2.85;;;1.70;;
62092;SDS011;59819;52.976;6.846;2022-09-09T13:53:26;7.47;;;2.47;;
62092;SDS011;59819;52.976;6.846;2022-09-09T13:55:53;5.57;;;2.00;;
62092;SDS011;59819;52.976;6.846;2022-09-09T13:58:20;5.65;;;2.00;;
62092;SDS011;59819;52.976;6.846;2022-09-09T14:00:46;4.60;;;1.88;;
62092;SDS011;59819;52.976;6.846;2022-09-09T14:03:13;4.90;;;2.40;;
62092;SDS011;59819;52.976;6.846;2022-09-09T14:05:39;8.40;;;2.88;;
62092;SDS011;59819;52.976;6.846;2022-09-09T14:08:06;7.47;;;2.53;;
62092;SDS011;59819;52.976;6.846;2022-09-09T14:10:32;4.78;;;2.45;;
62092;SDS011;59819;52.976;6.846;2022-09-09T14:13:02;7.68;;;2.40;;
62092;SDS011;59819;52.976;6.846;2022-09-09T14:15:28;8.35;;;2.80;;
62092;SDS011;59819;52.976;6.846;2022-09-09T14:17:54;7.85;;;3.15;;
62092;SDS011;59819;52.976;6.846;2022-09-09T14:20:20;9.15;;;3.03;;
62092;SDS011;59819;52.976;6.846;2022-09-09T14:22:46;7.68;;;2.88;;
62092;SDS011;59819;52.976;6.846;2022-09-09T14:25:12;6.90;;;3.13;;
62092;SDS011;59819;52.976;6.846;2022-09-09T14:27:39;6.85;;;3.05;;
62092;SDS011;59819;52.976;6.846;2022-09-09T14:30:06;8.45;;;3.40;;
62092;SDS011;59819;52.976;6.846;2022-09-09T14:32:32;6.47;;;3.20;;
62092;SDS011;59819;52.976;6.846;2022-09-09T14:34:58;7.80;;;2.92;;
62092;SDS011;59819;52.976;6.846;2022-09-09T14:37:24;5.28;;;2.63;;
62092;SDS011;59819;52.976;6.846;2022-09-09T14:39:51;4.20;;;2.30;;
62092;SDS011;59819;52.976;6.846;2022-09-09T14:42:19;7.20;;;2.58;;
62092;SDS011;59819;52.976;6.846;2022-09-09T14:44:45;6.50;;;2.30;;
62092;SDS011;59819;52.976;6.846;2022-09-09T14:47:12;11.65;;;3.17;;
62092;SDS011;59819;52.976;6.846;2022-09-09T14:49:38;7.32;;;2.90;;
62092;SDS011;59819;52.976;6.846;2022-09-09T14:52:05;4.85;;;2.35;;
62092;SDS011;59819;52.976;6.846;2022-09-09T14:54:31;4.13;;;2.08;;
62092;SDS011;59819;52.976;6.846;2022-09-09T14:56:58;2.88;;;1.48;;
62092;SDS011;59819;52.976;6.846;2022-09-09T14:59:24;2.85;;;1.90;;
62092;SDS011;59819;52.976;6.846;2022-09-09T15:01:50;2.58;;;1.80;;
62092;SDS011;59819;52.976;6.846;2022-09-09T15:04:16;3.83;;;1.60;;
62092;SDS011;59819;52.976;6.846;2022-09-09T15:06:43;2.50;;;1.55;;
62092;SDS011;59819;52.976;6.846;2022-09-09T15:09:13;2.90;;;1.52;;
62092;SDS011;59819;52.976;6.846;2022-09-09T15:11:39;1.98;;;1.38;;
62092;SDS011;59819;52.976;6.846;2022-09-09T15:14:06;2.05;;;1.20;;
62092;SDS011;59819;52.976;6.846;2022-09-09T15:16:32;1.67;;;1.10;;
62092;SDS011;59819;52.976;6.846;2022-09-09T15:18:59;2.78;;;1.00;;
62092;SDS011;59819;52.976;6.846;2022-09-09T15:21:35;2.63;;;1.33;;
62092;SDS011;59819;52.976;6.846;2022-09-09T15:24:01;2.53;;;1.30;;
62092;SDS011;59819;52.976;6.846;2022-09-09T15:26:27;1.80;;;1.23;;
62092;SDS011;59819;52.976;6.846;2022-09-09T15:28:54;2.70;;;1.40;;
62092;SDS011;59819;52.976;6.846;2022-09-09T15:31:24;4.07;;;1.67;;
62092;SDS011;59819;52.976;6.846;2022-09-09T15:33:51;2.55;;;1.60;;
62092;SDS011;59819;52.976;6.846;2022-09-09T15:36:19;3.22;;;1.80;;
62092;SDS011;59819;52.976;6.846;2022-09-09T15:38:46;2.65;;;1.70;;
62092;SDS011;59819;52.976;6.846;2022-09-09T15:41:12;2.92;;;1.90;;
62092;SDS011;59819;52.976;6.846;2022-09-09T15:43:38;3.15;;;2.20;;
62092;SDS011;59819;52.976;6.846;2022-09-09T15:46:14;2.78;;;1.90;;
62092;SDS011;59819;52.976;6.846;2022-09-09T15:48:51;5.70;;;2.47;;
62092;SDS011;59819;52.976;6.846;2022-09-09T15:51:17;3.40;;;2.50;;
62092;SDS011;59819;52.976;6.846;2022-09-09T15:53:44;3.40;;;2.45;;
62092;SDS011;59819;52.976;6.846;2022-09-09T15:56:10;3.70;;;2.75;;
62092;SDS011;59819;52.976;6.846;2022-09-09T15:58:36;5.32;;;2.58;;
62092;SDS011;59819;52.976;6.846;2022-09-09T16:01:06;3.75;;;2.40;;
62092;SDS011;59819;52.976;6.846;2022-09-09T16:03:36;4.75;;;2.60;;
62092;SDS011;59819;52.976;6.846;2022-09-09T16:06:02;8.75;;;3.42;;
62092;SDS011;59819;52.976;6.846;2022-09-09T16:08:36;3.88;;;2.63;;
62092;SDS011;59819;52.976;6.846;2022-09-09T16:13:33;6.13;;;2.85;;
62092;SDS011;59819;52.976;6.846;2022-09-09T16:15:59;3.60;;;2.67;;
62092;SDS011;59819;52.976;6.846;2022-09-09T16:18:25;4.15;;;2.83;;
62092;SDS011;59819;52.976;6.846;2022-09-09T16:20:54;4.60;;;3.00;;
62092;SDS011;59819;52.976;6.846;2022-09-09T16:23:20;3.92;;;2.85;;
62092;SDS011;59819;52.976;6.846;2022-09-09T16:25:54;3.90;;;3.08;;